Terminal Aerodrome Forecast
Issued by NWS

Home | Current Version | Previous Version | Graphics & Text | Print | Product List | Glossary On
Versions: 1 2 3 4 5 6 7 8 9 10 11 12 13 14 15 16 17 18 19 20 21
000
FTUS43 KTOP 181800 AAA
TAFMHK
TAF AMD
KMHK 181839Z 1819/1918 17008KT P6SM SCT013 BKN090
     FM190100 15008KT P6SM VCTS BKN050CB
     FM190600 21002KT 4SM -TSRA BKN040CB
     FM191300 35004KT P6SM VCSH OVC035=

USA.gov is the U.S. government's official web portal to all federal, state and local government web resources and services.